M I D A S
Marine Information and Data Acquisition System
Tripno 1607 of the Zeeleeuw from 2008-11-06 06:15:56 to 2008-11-06 11:15:34
Back to CruiseResearch ActivitiesStationsMapUnderway DataData graphs

EquipmentUnitsComment
TimeDGPSUTC
LatitudeDGPSDM.mWGS84
LongitudeDGPSDM.mWGS84
HeadingGyrodeg 
SOGDGPSknotsSpeed over ground
COGDGPSdegCourse over ground
DepthEcho soundermeters200 kHz
Missing or incorrect values are displayed as -999
Navigation data collected by the RV Zeeleeuw from 2008-11-06 05:35:30 to 2008-11-06 11:19:50
Time Latitude Longitude Heading SOG COG Depth
2008-11-06 05:36:35 51°13.62 2°56.045 122.9 -999 329 -999
2008-11-06 05:37:35 51°13.62 2°56.046 122.9 -999 20 -999
2008-11-06 05:38:35 51°13.621 2°56.046 122.9 0.1 15 -999
2008-11-06 05:39:35 51°13.62 2°56.046 122.9 0.1 188 -999
2008-11-06 05:40:35 51°13.622 2°56.048 123 -999 25 -999
2008-11-06 05:41:35 51°13.623 2°56.048 122.9 -999 347 -999
2008-11-06 05:42:35 51°13.624 2°56.048 122.8 0.1 1 -999
2008-11-06 05:43:35 51°13.625 2°56.048 122.8 0.1 9 -999
2008-11-06 05:44:35 51°13.625 2°56.048 122.9 -999 307 -999
2008-11-06 05:45:35 51°13.625 2°56.048 122.9 -999 61 -999
2008-11-06 05:46:35 51°13.622 2°56.048 122.8 -999 184 -999
2008-11-06 05:47:35 51°13.623 2°56.047 122.9 -999 296 -999
2008-11-06 05:48:35 51°13.625 2°56.048 122.7 -999 64 -999
2008-11-06 05:49:35 51°13.625 2°56.049 122.5 -999 64 -999
2008-11-06 05:50:35 51°13.624 2°56.049 122.5 0.1 157 -999
2008-11-06 05:51:34 51°13.625 2°56.048 122.6 0.1 38 9.7
2008-11-06 05:52:35 51°13.624 2°56.047 122.5 0.1 37 9.7
2008-11-06 05:53:34 51°13.623 2°56.048 122.5 -999 346 9.7
2008-11-06 05:54:35 51°13.623 2°56.048 122.5 -999 97 9.6
2008-11-06 05:55:35 51°13.623 2°56.048 122.4 -999 307 9.7
2008-11-06 05:56:34 51°13.623 2°56.047 122.4 -999 59 9.7
2008-11-06 05:57:35 51°13.623 2°56.048 122.4 -999 245 9.7
2008-11-06 05:58:34 51°13.622 2°56.047 122.4 -999 182 9.6
2008-11-06 05:59:35 51°13.623 2°56.047 122.4 -999 257 9.6
2008-11-06 06:00:34 51°13.623 2°56.047 122.5 -999 316 9.6
2008-11-06 06:01:35 51°13.623 2°56.047 122.5 -999 104 9.6
2008-11-06 06:02:34 51°13.623 2°56.047 122.4 -999 25 9.6
2008-11-06 06:03:34 51°13.623 2°56.048 122.2 -999 69 9.6
2008-11-06 06:04:34 51°13.624 2°56.048 121.2 -999 246 9.6
2008-11-06 06:05:34 51°13.624 2°56.047 120.4 -999 28 9.6
2008-11-06 06:06:35 51°13.623 2°56.047 120.5 -999 101 9.6
2008-11-06 06:07:34 51°13.623 2°56.048 122.9 0.1 66 9.6
2008-11-06 06:08:35 51°13.623 2°56.049 118.1 0.1 194 9.6
2008-11-06 06:09:35 51°13.627 2°56.026 110.2 2.5 294 -999
2008-11-06 06:10:35 51°13.654 2°55.931 116.1 4.7 297 -999
2008-11-06 06:11:35 51°13.699 2°55.818 125.6 5.2 306 -999
2008-11-06 06:12:35 51°13.756 2°55.71 134.7 5.3 315 -999
2008-11-06 06:13:35 51°13.833 2°55.638 162 5.3 341 -999
2008-11-06 06:14:35 51°13.911 2°55.641 205.9 4.2 22 -999
2008-11-06 06:15:35 51°13.942 2°55.665 245.7 1.2 276 13
2008-11-06 06:16:34 51°13.979 2°55.568 310.9 6.4 317 12.4
2008-11-06 06:17:35 51°14.084 2°55.455 328.7 8.5 329 12.4
2008-11-06 06:18:34 51°14.209 2°55.327 324 9.5 322 12.7
2008-11-06 06:19:35 51°14.323 2°55.133 309.1 10.5 309 12.3
2008-11-06 06:20:34 51°14.442 2°54.924 310.3 10.8 312 12.4
2008-11-06 06:21:35 51°14.552 2°54.696 301.4 10.8 306 12
2008-11-06 06:22:35 51°14.649 2°54.445 295.5 11.5 300 11.9
2008-11-06 06:23:34 51°14.745 2°54.177 295.6 12 300 11.8
2008-11-06 06:24:35 51°14.844 2°53.893 294.9 12.2 298 11.2
2008-11-06 06:25:34 51°14.94 2°53.614 295.8 12.3 298 11.1
2008-11-06 06:26:35 51°15.041 2°53.326 295.8 12.2 299 11.4
2008-11-06 06:27:35 51°15.138 2°53.047 295.4 12 298 11.7
2008-11-06 06:28:34 51°15.229 2°52.773 293.4 11.9 297 12.4
2008-11-06 06:29:35 51°15.315 2°52.483 289.7 11.8 293 12.6
2008-11-06 06:30:34 51°15.383 2°52.197 286.6 11.7 290 13
2008-11-06 06:31:35 51°15.444 2°51.9 283.3 11.6 286 13.5
2008-11-06 06:32:34 51°15.494 2°51.609 281 11.6 284 14
2008-11-06 06:33:35 51°15.541 2°51.306 279.7 11.6 284 14.2
2008-11-06 06:34:34 51°15.589 2°51.013 281 11.6 284 14.4
2008-11-06 06:35:35 51°15.639 2°50.711 281.1 11.6 284 14.5
2008-11-06 06:36:35 51°15.687 2°50.412 281 11.6 284 14.4
2008-11-06 06:37:35 51°15.729 2°50.111 279.4 11.6 282 14.4
2008-11-06 06:38:35 51°15.766 2°49.809 278.4 11.6 281 13.3
2008-11-06 06:39:35 51°15.801 2°49.506 276.6 11.6 279 12.3
2008-11-06 06:40:35 51°15.84 2°49.203 280.6 11.7 282 12.1
2008-11-06 06:41:34 51°15.875 2°48.903 277.8 11.7 281 13
2008-11-06 06:42:35 51°15.909 2°48.593 277.6 11.5 278 14
2008-11-06 06:43:34 51°15.936 2°48.294 274.3 11.5 277 15.8
2008-11-06 06:44:35 51°15.963 2°47.985 277.3 11.6 279 16.6
2008-11-06 06:45:35 51°15.992 2°47.679 276.4 11.7 281 17.2
2008-11-06 06:46:34 51°16.026 2°47.378 277.7 11.6 279 17.8
2008-11-06 06:47:35 51°16.053 2°47.07 275.1 11.5 277 17.1
2008-11-06 06:48:34 51°16.08 2°46.773 275.6 11.5 278 15.9
2008-11-06 06:49:35 51°16.115 2°46.468 279.7 11.7 285 14.4
2008-11-06 06:50:34 51°16.18 2°46.182 290.7 11.8 292 12.4
2008-11-06 06:51:35 51°16.264 2°45.892 293 11.9 296 11.7
2008-11-06 06:52:35 51°16.369 2°45.622 302.1 12.1 307 11.8
2008-11-06 06:53:35 51°16.513 2°45.395 318.4 12.3 323 12.5
2008-11-06 06:54:35 51°16.687 2°45.216 326.5 12.4 328 12.4
2008-11-06 06:55:35 51°16.864 2°45.042 327.9 12.5 331 13.1
2008-11-06 06:56:35 51°17.046 2°44.881 329.5 12.6 331 15.3
2008-11-06 06:57:35 51°17.229 2°44.717 328.7 12.7 330 17.2
2008-11-06 06:58:35 51°17.41 2°44.549 327.4 12.5 330 17.5
2008-11-06 06:59:35 51°17.589 2°44.381 327.9 12.5 330 18.1
2008-11-06 07:00:35 51°17.766 2°44.21 326.7 12.4 329 18.2
2008-11-06 07:01:35 51°17.943 2°44.041 327.5 12.4 329 16.1
2008-11-06 07:02:35 51°18.12 2°43.876 327.5 12.2 329 12.2
2008-11-06 07:03:35 51°18.295 2°43.707 324.6 12.4 329 14.9
2008-11-06 07:04:34 51°18.469 2°43.536 325.9 12.6 330 23.5
2008-11-06 07:05:35 51°18.656 2°43.371 327.2 12.6 330 24.1
2008-11-06 07:06:34 51°18.814 2°43.168 310.5 12.3 313 24.4
2008-11-06 07:07:35 51°18.931 2°42.899 293.6 12.1 297 24.7
2008-11-06 07:08:35 51°19.004 2°42.602 287.7 12.1 291 24.5
2008-11-06 07:09:35 51°19.069 2°42.3 284.8 12 289 24.5
2008-11-06 07:10:35 51°19.134 2°42 285.5 11.9 290 23.6
2008-11-06 07:11:35 51°19.209 2°41.704 290.5 12.1 293 21.5
2008-11-06 07:12:35 51°19.288 2°41.412 289.5 12 293 20.9
2008-11-06 07:13:35 51°19.364 2°41.12 287 11.9 294 19.6
2008-11-06 07:14:35 51°19.437 2°40.824 288.2 12 293 21.6
2008-11-06 07:15:35 51°19.516 2°40.534 287.3 11.9 291 19.7
2008-11-06 07:16:35 51°19.577 2°40.233 281.7 12 287 25.8
2008-11-06 07:17:35 51°19.632 2°39.926 281.5 12 286 30
2008-11-06 07:18:35 51°19.681 2°39.617 280.7 12 283 30.7
2008-11-06 07:19:35 51°19.725 2°39.308 279.1 12 283 29.8
2008-11-06 07:20:35 51°19.772 2°38.997 279.6 12 284 27.2
2008-11-06 07:21:35 51°19.828 2°38.688 282.7 12.2 287 24.9
2008-11-06 07:22:34 51°19.88 2°38.383 282.4 12.1 285 24.3
2008-11-06 07:23:35 51°19.93 2°38.069 280.5 11.8 281 23.9
2008-11-06 07:24:34 51°19.974 2°37.767 279.7 12 285 21.8
2008-11-06 07:25:35 51°20.022 2°37.5 281.7 8 288 22.2
2008-11-06 07:26:35 51°20.057 2°37.326 281.1 6.4 287 22.8
2008-11-06 07:27:35 51°20.087 2°37.183 280.9 4.5 292 21.6
2008-11-06 07:28:35 51°20.106 2°37.146 296.5 0.9 -999 20.8
2008-11-06 07:29:35 51°20.122 2°37.146 306.3 0.9 2 22.2
2008-11-06 07:30:35 51°20.139 2°37.149 314.7 1.1 5 23
2008-11-06 07:31:35 51°20.157 2°37.155 317.9 1 7 23.3
2008-11-06 07:32:35 51°20.174 2°37.159 310.9 1 7 22.8
2008-11-06 07:33:35 51°20.191 2°37.163 300.6 1.1 12 23.1
2008-11-06 07:34:35 51°20.207 2°37.169 292.5 0.9 15 22.8
2008-11-06 07:35:35 51°20.222 2°37.176 286.1 0.9 18 23
2008-11-06 07:36:35 51°20.227 2°37.146 239.3 2.2 238 22.8
2008-11-06 07:37:36 51°20.181 2°37.143 164.5 3.9 157 22.9
2008-11-06 07:38:35 51°20.102 2°37.178 180.2 6.3 184 22.4
2008-11-06 07:39:35 51°19.974 2°37.146 192.9 8.1 204 20.2
2008-11-06 07:40:35 51°19.942 2°37.005 270.4 4.3 283 21.5
2008-11-06 07:41:35 51°19.956 2°36.96 290.5 0.8 346 22
2008-11-06 07:42:35 51°19.973 2°36.954 307.6 1.5 339 22
2008-11-06 07:43:35 51°19.996 2°36.938 308.1 1.5 339 22.4
2008-11-06 07:44:35 51°20.017 2°36.927 302.6 1.2 347 23
2008-11-06 07:45:35 51°20.036 2°36.92 299.3 1.1 347 23.2
2008-11-06 07:46:35 51°20.055 2°36.915 295.7 1.1 346 24.2
2008-11-06 07:47:35 51°20.071 2°36.908 288.2 0.9 344 25.2
2008-11-06 07:48:35 51°20.086 2°36.903 279.4 0.9 349 23.9
2008-11-06 07:49:35 51°20.1 2°36.899 274.6 0.9 356 20.7
2008-11-06 07:50:35 51°20.114 2°36.898 276.6 0.8 3 22.8
2008-11-06 07:51:35 51°20.129 2°36.9 278 0.8 5 22.9
2008-11-06 07:52:35 51°20.142 2°36.902 273.3 0.8 8 22.7
2008-11-06 07:53:35 51°20.156 2°36.907 270 0.8 15 22.9
2008-11-06 07:54:35 51°20.171 2°36.913 271 1 15 21
2008-11-06 07:55:35 51°20.186 2°36.92 271.3 0.9 15 22.2
2008-11-06 07:56:35 51°20.2 2°36.927 271 0.9 16 22.8
2008-11-06 07:57:35 51°20.215 2°36.935 270.9 1 17 22.9
2008-11-06 07:58:35 51°20.23 2°36.944 273.4 1 21 20.9
2008-11-06 07:59:35 51°20.245 2°36.953 277.9 0.9 21 22.8
2008-11-06 08:00:35 51°20.26 2°36.962 279.8 1 19 23
2008-11-06 08:01:35 51°20.274 2°36.971 282.3 0.9 24 23.2
2008-11-06 08:02:35 51°20.289 2°36.981 285.7 0.9 26 23.4
2008-11-06 08:03:35 51°20.304 2°36.991 288.1 1 27 23.5
2008-11-06 08:04:35 51°20.311 2°36.957 247.3 3.1 246 23.5
2008-11-06 08:05:35 51°20.249 2°36.957 157.4 5.1 162 22.8
2008-11-06 08:06:35 51°20.199 2°36.954 197.3 1.7 197 22.6
2008-11-06 08:07:35 51°20.189 2°36.937 231.7 0.5 282 22.7
2008-11-06 08:08:35 51°20.196 2°36.926 260.2 0.8 329 22.6
2008-11-06 08:09:35 51°20.208 2°36.917 272.1 0.9 343 22.8
2008-11-06 08:10:35 51°20.22 2°36.91 271.2 0.8 347 23.2
2008-11-06 08:11:35 51°20.233 2°36.906 267.7 0.8 350 22.7
2008-11-06 08:12:35 51°20.246 2°36.904 267.7 0.9 349 21.3
2008-11-06 08:13:35 51°20.259 2°36.904 268.3 0.8 1 22.4
2008-11-06 08:14:35 51°20.273 2°36.905 269.5 0.9 1 22.7
2008-11-06 08:15:35 51°20.286 2°36.906 268.4 0.7 4 22.8
2008-11-06 08:16:35 51°20.3 2°36.907 265.8 0.8 5 22.8
2008-11-06 08:17:35 51°20.313 2°36.91 265.2 0.9 7 23
2008-11-06 08:18:35 51°20.315 2°36.886 227.2 1.4 236 22.5
2008-11-06 08:19:35 51°20.288 2°36.879 170.5 2.3 162 22.1
2008-11-06 08:20:35 51°20.255 2°36.898 165.4 1.6 167 21.4
2008-11-06 08:21:35 51°20.239 2°36.92 155.8 1.1 131 20.6
2008-11-06 08:22:35 51°20.232 2°36.939 154.1 0.7 110 21.5
2008-11-06 08:23:35 51°20.232 2°36.957 152.6 0.6 80 21.5
2008-11-06 08:24:35 51°20.236 2°36.972 151.6 0.6 57 22
2008-11-06 08:25:35 51°20.243 2°36.985 147.8 0.7 47 22.6
2008-11-06 08:26:35 51°20.253 2°36.998 139 0.8 41 22.7
2008-11-06 08:27:35 51°20.265 2°37.01 127.1 0.9 31 23.1
2008-11-06 08:28:35 51°20.278 2°37.021 113.5 0.9 34 22.5
2008-11-06 08:29:35 51°20.284 2°37.047 124.4 1.2 93 22.4
2008-11-06 08:30:35 51°20.264 2°37.074 173.8 1.9 175 23.1
2008-11-06 08:31:35 51°20.243 2°37.063 203.9 1.1 218 22
2008-11-06 08:32:35 51°20.234 2°37.045 217.1 0.8 254 22.7
2008-11-06 08:33:35 51°20.233 2°37.029 227.1 0.6 283 22.8
2008-11-06 08:34:35 51°20.238 2°37.015 237.7 0.6 309 22.8
2008-11-06 08:35:35 51°20.246 2°37.002 248.8 0.8 322 22.7
2008-11-06 08:36:35 51°20.256 2°36.992 257.4 0.7 335 22.6
2008-11-06 08:37:35 51°20.268 2°36.984 263.3 0.8 337 22.7
2008-11-06 08:38:35 51°20.28 2°36.978 265.2 0.9 343 22.7
2008-11-06 08:39:35 51°20.293 2°36.973 269.3 0.7 353 23
2008-11-06 08:40:35 51°20.306 2°36.971 272.3 0.8 355 23.2
2008-11-06 08:41:35 51°20.319 2°36.97 275 0.8 359 23.1
2008-11-06 08:42:35 51°20.332 2°36.971 276.4 0.9 2 23
2008-11-06 08:43:35 51°20.346 2°36.971 276.5 0.8 1 21.4
2008-11-06 08:44:35 51°20.359 2°36.973 280.1 0.8 3 22
2008-11-06 08:45:35 51°20.373 2°36.974 283.3 0.7 353 22.4
2008-11-06 08:46:35 51°20.384 2°36.948 255.3 1.7 269 21.9
2008-11-06 08:47:35 51°20.367 2°36.911 201.7 1.7 199 23
2008-11-06 08:48:35 51°20.342 2°36.909 171.1 1.6 174 23
2008-11-06 08:49:35 51°20.314 2°36.92 170.8 1.7 169 23.1
2008-11-06 08:50:35 51°20.289 2°36.925 180.5 1.3 178 22.7
2008-11-06 08:51:35 51°20.269 2°36.923 187.7 1.1 185 22.7
2008-11-06 08:52:35 51°20.254 2°36.917 197.8 0.8 200 21.7
2008-11-06 08:53:35 51°20.246 2°36.905 209 0.5 231 20.8
2008-11-06 08:54:35 51°20.243 2°36.893 220.9 0.5 266 21.8
2008-11-06 08:55:35 51°20.247 2°36.88 236.3 0.6 304 22.3
2008-11-06 08:56:35 51°20.253 2°36.868 247.7 0.7 315 22.4
2008-11-06 08:57:35 51°20.262 2°36.857 255.1 0.7 326 22.6
2008-11-06 08:58:35 51°20.272 2°36.848 261 0.6 329 22.2
2008-11-06 08:59:35 51°20.283 2°36.839 265.1 0.7 330 21.9
2008-11-06 09:00:35 51°20.295 2°36.829 268 1.2 306 22.2
2008-11-06 09:01:35 51°20.303 2°36.792 264.1 1.5 289 22.7
2008-11-06 09:02:35 51°20.309 2°36.76 259.2 1.2 293 22.6
2008-11-06 09:03:35 51°20.316 2°36.735 257.8 0.8 292 22.4
2008-11-06 09:04:35 51°20.323 2°36.718 255.4 0.7 309 22.2
2008-11-06 09:05:35 51°20.328 2°36.696 242.9 1.4 260 21.9
2008-11-06 09:06:35 51°20.305 2°36.67 186 2 185 22.1
2008-11-06 09:07:35 51°20.273 2°36.7 138.8 2.4 133 22.2
2008-11-06 09:08:35 51°20.255 2°36.744 126.2 1.7 113 20.8
2008-11-06 09:09:35 51°20.248 2°36.781 119.9 1.3 103 21.9
2008-11-06 09:10:35 51°20.246 2°36.811 118.2 0.9 95 22.6
2008-11-06 09:11:35 51°20.247 2°36.833 120.3 0.8 83 22.7
2008-11-06 09:12:35 51°20.249 2°36.851 121.9 0.6 75 22.9
2008-11-06 09:13:35 51°20.253 2°36.864 123 0.6 57 22.6
2008-11-06 09:14:35 51°20.256 2°36.874 123.9 0.4 68 21.9
2008-11-06 09:15:35 51°20.26 2°36.884 122.1 0.5 51 20.6
2008-11-06 09:16:35 51°20.266 2°36.893 118.9 0.4 48 21.6
2008-11-06 09:17:35 51°20.272 2°36.903 115 0.6 44 22.3
2008-11-06 09:18:35 51°20.279 2°36.913 111.7 0.6 44 22.6
2008-11-06 09:19:35 51°20.286 2°36.924 108.8 0.6 43 22.7
2008-11-06 09:20:35 51°20.292 2°36.933 110.9 0.5 45 22.6
2008-11-06 09:21:35 51°20.299 2°36.942 110.6 0.5 34 22.9
2008-11-06 09:22:35 51°20.307 2°36.95 110.8 0.5 34 22.7
2008-11-06 09:23:35 51°20.314 2°36.957 110.9 0.6 29 22.7
2008-11-06 09:24:35 51°20.321 2°36.963 113.1 0.5 23 22.8
2008-11-06 09:25:35 51°20.328 2°36.967 114.6 0.4 7 22.8
2008-11-06 09:26:35 51°20.336 2°36.97 113.7 0.5 15 22.4
2008-11-06 09:27:35 51°20.342 2°36.976 117.2 0.5 73 21.1
2008-11-06 09:28:35 51°20.336 2°36.997 146.5 1.1 148 21.8
2008-11-06 09:29:35 51°20.314 2°37.002 187.9 1.3 198 20.7
2008-11-06 09:30:35 51°20.295 2°36.982 209.8 1.5 220 22.7
2008-11-06 09:31:35 51°20.274 2°36.965 179.7 1.3 186 22.7
2008-11-06 09:32:35 51°20.258 2°36.972 146.7 0.7 142 22.2
2008-11-06 09:33:35 51°20.253 2°36.985 135.5 0.5 102 22
2008-11-06 09:34:35 51°20.254 2°36.998 132.4 0.4 74 22.3
2008-11-06 09:35:35 51°20.257 2°37.007 130.9 0.4 78 22.3
2008-11-06 09:36:35 51°20.225 2°37.017 189.1 2.9 200 22
2008-11-06 09:37:35 51°20.2 2°36.953 255.7 3 270 22.3
2008-11-06 09:38:35 51°20.218 2°36.88 298.7 2.7 304 22.3
2008-11-06 09:39:35 51°20.244 2°36.823 301.6 2.4 308 22.2
2008-11-06 09:40:35 51°20.265 2°36.777 294.7 1.8 307 22.2
2008-11-06 09:41:35 51°20.279 2°36.742 288.3 1.4 302 22
2008-11-06 09:42:35 51°20.289 2°36.715 279.4 1 296 21
2008-11-06 09:43:35 51°20.298 2°36.692 274.5 0.9 306 20.5
2008-11-06 09:44:35 51°20.307 2°36.675 275.7 0.8 308 21.5
2008-11-06 09:45:35 51°20.315 2°36.659 276.3 0.7 308 21.8
2008-11-06 09:46:35 51°20.323 2°36.645 275 0.7 305 21.3
2008-11-06 09:47:35 51°20.332 2°36.633 274.3 0.7 323 21.1
2008-11-06 09:48:35 51°20.339 2°36.607 267 2.2 272 20.6
2008-11-06 09:49:35 51°20.311 2°36.538 208 3.7 211 20.6
2008-11-06 09:50:35 51°20.254 2°36.56 134.9 3.9 130 21.2
2008-11-06 09:51:35 51°20.226 2°36.684 106.9 6.4 108 21.7
2008-11-06 09:52:35 51°20.188 2°36.876 107.3 8.6 108 20.5
2008-11-06 09:53:35 51°20.143 2°37.102 107.7 9.1 108 19.9
2008-11-06 09:54:35 51°20.094 2°37.331 108.5 9.1 110 21.9
2008-11-06 09:55:35 51°20.039 2°37.583 108.5 10.6 109 22
2008-11-06 09:56:35 51°19.979 2°37.853 108.5 11.1 110 22.8
2008-11-06 09:57:35 51°19.915 2°38.146 108 11.8 108 23.2
2008-11-06 09:58:35 51°19.847 2°38.444 109.3 12 113 23.2
2008-11-06 09:59:35 51°19.781 2°38.744 106.4 11.9 109 24
2008-11-06 10:00:35 51°19.719 2°39.047 108 12 109 26.2
2008-11-06 10:01:35 51°19.653 2°39.347 108.8 12 110 28.6
2008-11-06 10:02:35 51°19.592 2°39.652 108.2 12 106 29.8
2008-11-06 10:03:35 51°19.528 2°39.953 107.3 12 109 27.7
2008-11-06 10:04:35 51°19.464 2°40.254 108.5 11.9 113 22.5
2008-11-06 10:05:35 51°19.393 2°40.549 109.8 12 113 16
2008-11-06 10:06:35 51°19.324 2°40.845 108.8 12 113 19.7
2008-11-06 10:07:35 51°19.254 2°41.142 109.2 11.9 111 16.7
2008-11-06 10:08:35 51°19.189 2°41.441 105.7 11.8 108 16.4
2008-11-06 10:09:35 51°19.122 2°41.74 109.5 12 113 20.5
2008-11-06 10:10:35 51°19.051 2°42.035 110.6 12 109 21.9
2008-11-06 10:11:35 51°18.97 2°42.326 115.3 12 114 22.8
2008-11-06 10:12:35 51°18.885 2°42.614 115.5 12 115 23.1
2008-11-06 10:13:35 51°18.794 2°42.897 116.3 12 116 23.1
2008-11-06 10:14:35 51°18.702 2°43.179 116.9 12.1 117 23
2008-11-06 10:15:35 51°18.601 2°43.453 118.7 12 124 22.5
2008-11-06 10:16:35 51°18.473 2°43.696 133.3 12.1 135 21
2008-11-06 10:17:35 51°18.317 2°43.887 142 11.7 144 11.6
2008-11-06 10:18:35 51°18.156 2°44.057 142.3 11.7 148 11.7
2008-11-06 10:19:35 51°17.99 2°44.224 146.8 11.8 146 16
2008-11-06 10:20:35 51°17.824 2°44.387 145.8 11.7 148 17
2008-11-06 10:21:35 51°17.653 2°44.547 146.3 12.1 151 16.9
2008-11-06 10:22:35 51°17.487 2°44.715 143.6 11.9 146 16.7
2008-11-06 10:23:35 51°17.316 2°44.88 146.8 12.2 148 15.7
2008-11-06 10:24:35 51°17.144 2°45.047 144.8 12 148 14
2008-11-06 10:25:35 51°16.974 2°45.213 146.5 11.8 148 12.4
2008-11-06 10:26:35 51°16.803 2°45.378 145.7 11.9 147 12.3
2008-11-06 10:27:35 51°16.632 2°45.544 145.1 11.7 148 10.7
2008-11-06 10:28:35 51°16.452 2°45.677 160.5 12 166 10.2
2008-11-06 10:29:35 51°16.255 2°45.668 187.2 12 195 9.8
2008-11-06 10:30:35 51°16.068 2°45.546 201.2 12.3 205 10
2008-11-06 10:31:35 51°15.882 2°45.41 200.8 12.2 204 11.6
2008-11-06 10:32:35 51°15.686 2°45.318 185 12.3 187 14.4
2008-11-06 10:33:35 51°15.485 2°45.35 163.1 12.2 167 17.2
2008-11-06 10:34:35 51°15.307 2°45.488 143.9 11.7 146 16
2008-11-06 10:35:35 51°15.179 2°45.716 118.2 11.7 122 14.6
2008-11-06 10:36:35 51°15.113 2°46.005 101.3 11.6 104 12.8
2008-11-06 10:37:35 51°15.08 2°46.309 95.9 11.6 100 11.1
2008-11-06 10:38:35 51°15.06 2°46.614 91.3 11.4 93 9.6
2008-11-06 10:39:35 51°15.051 2°46.917 92 11.5 97 8.8
2008-11-06 10:40:35 51°15.024 2°47.215 96.3 11.3 101 9
2008-11-06 10:41:35 51°14.986 2°47.514 100.3 11.6 104 10.9
2008-11-06 10:42:35 51°14.954 2°47.816 96.4 11.6 100 12.4
2008-11-06 10:43:35 51°14.936 2°48.12 91.6 11.5 94 12.4
2008-11-06 10:44:35 51°14.912 2°48.425 95 11.6 101 11.8
2008-11-06 10:45:35 51°14.891 2°48.731 91.4 11.5 96 11.9
2008-11-06 10:46:35 51°14.873 2°49.036 92.9 11.6 96 11.9
2008-11-06 10:47:35 51°14.847 2°49.342 95.8 11.7 100 12
2008-11-06 10:48:35 51°14.824 2°49.649 95.2 11.8 96 11.8
2008-11-06 10:49:35 51°14.797 2°49.956 95.9 11.6 98 11.6
2008-11-06 10:50:35 51°14.783 2°50.262 90.6 11.5 93 11.5
2008-11-06 10:51:35 51°14.773 2°50.568 91.3 11.5 93 11.2
2008-11-06 10:52:35 51°14.759 2°50.873 91.4 11.5 94 10.8
2008-11-06 10:53:35 51°14.741 2°51.177 91.4 11.4 94 10.3
2008-11-06 10:54:35 51°14.725 2°51.479 92.1 11.5 96 9.8
2008-11-06 10:55:35 51°14.712 2°51.78 87.4 11.3 89 9.4
2008-11-06 10:56:35 51°14.717 2°52.081 85.5 11.4 90 9.1
2008-11-06 10:57:35 51°14.732 2°52.38 78.5 11.2 81 9.1
2008-11-06 10:58:35 51°14.754 2°52.679 79.7 11.4 80 8.8
2008-11-06 10:59:35 51°14.769 2°52.98 83.6 11.4 90 8.8
2008-11-06 11:00:35 51°14.764 2°53.283 93.4 11.5 98 9
2008-11-06 11:01:35 51°14.743 2°53.59 93.9 11.7 96 9.7
2008-11-06 11:02:35 51°14.707 2°53.892 98.6 11.5 102 10
2008-11-06 11:03:35 51°14.65 2°54.188 103.6 11.5 108 10.8
2008-11-06 11:04:35 51°14.585 2°54.478 106.6 11.7 112 9.8
2008-11-06 11:05:35 51°14.491 2°54.753 115.8 12 123 10.4
2008-11-06 11:06:35 51°14.38 2°55.01 121.1 11.8 124 9.7
2008-11-06 11:07:35 51°14.259 2°55.256 129.3 11.6 134 9.4
2008-11-06 11:08:35 51°14.145 2°55.395 146.8 6 150 10
2008-11-06 11:09:35 51°14.074 2°55.459 150 4.4 152 9.9
2008-11-06 11:10:35 51°14.009 2°55.509 155.2 4.5 156 10.1
2008-11-06 11:11:35 51°13.932 2°55.562 156 5.5 158 10.4
2008-11-06 11:12:35 51°13.847 2°55.62 154.1 5.6 156 10.6
2008-11-06 11:13:35 51°13.776 2°55.688 138.5 4.3 139 10.3
2008-11-06 11:14:35 51°13.731 2°55.763 130.8 3.9 131 11.6
2008-11-06 11:15:35 51°13.692 2°55.846 126.2 3.9 126 8.6
2008-11-06 11:16:35 51°13.653 2°55.929 123.7 3.7 124 9.8
2008-11-06 11:17:35 51°13.632 2°56.001 108.2 2.5 107 8.8
2008-11-06 11:18:35 51°13.627 2°56.033 112.3 0.7 114 5.5
2008-11-06 11:19:35 51°13.623 2°56.045 122.4 0.2 109 5.4